createdAt,value
2022-10-21T00:13:00.000Z,982.79
2022-10-21T00:27:37.000Z,982.58
2022-10-21T00:42:17.000Z,982.36
2022-10-21T00:56:55.000Z,982.36
2022-10-21T01:11:34.000Z,982.30
2022-10-21T01:26:13.000Z,982.09
2022-10-21T01:40:52.000Z,981.89
2022-10-21T01:55:31.000Z,981.79
2022-10-21T02:10:10.000Z,981.39
2022-10-21T02:24:46.000Z,981.32
2022-10-21T02:39:25.000Z,981.31
2022-10-21T02:54:04.000Z,981.50
2022-10-21T03:08:43.000Z,981.44
2022-10-21T03:23:21.000Z,981.20
2022-10-21T03:38:00.000Z,981.01
2022-10-21T03:52:39.000Z,981.04
2022-10-21T04:07:16.000Z,981.06
2022-10-21T04:21:56.000Z,980.97
2022-10-21T04:36:35.000Z,980.83
2022-10-21T04:51:14.000Z,980.72
2022-10-21T05:05:53.000Z,980.75
2022-10-21T05:20:31.000Z,980.54
2022-10-21T05:35:10.000Z,980.37
2022-10-21T05:49:49.000Z,980.23
2022-10-21T06:04:18.000Z,980.22
2022-10-21T06:18:56.000Z,980.16
2022-10-21T06:33:38.000Z,980.37
2022-10-21T06:48:08.000Z,980.38
2022-10-21T07:02:47.000Z,980.48
2022-10-21T07:17:28.000Z,980.65
2022-10-21T07:32:09.000Z,980.91
2022-10-21T07:46:41.000Z,981.04
2022-10-21T08:01:16.000Z,981.02
2022-10-21T08:15:56.000Z,981.17
2022-10-21T08:30:36.000Z,981.19
2022-10-21T08:45:14.000Z,981.21
2022-10-21T08:59:52.000Z,981.25
2022-10-21T09:14:32.000Z,981.31
2022-10-21T09:29:09.000Z,981.29
2022-10-21T09:43:48.000Z,981.26
2022-10-21T09:58:26.000Z,981.31
2022-10-21T10:13:06.000Z,981.30
2022-10-21T10:27:45.000Z,981.07
2022-10-21T10:42:23.000Z,981.67
2022-10-21T10:57:02.000Z,981.77
2022-10-21T11:11:41.000Z,981.80
2022-10-21T11:26:20.000Z,981.56
2022-10-21T11:41:02.000Z,981.64
2022-10-21T11:55:52.000Z,981.54
2022-10-21T12:00:48.000Z,981.50
2022-10-21T12:05:45.000Z,981.53
2022-10-21T12:10:39.000Z,981.48
2022-10-21T12:15:34.000Z,981.39
2022-10-21T12:20:30.000Z,981.51
2022-10-21T12:25:26.000Z,981.48
2022-10-21T12:30:21.000Z,981.54
2022-10-21T12:35:15.000Z,981.34
2022-10-21T12:40:09.000Z,981.38
2022-10-21T12:45:02.000Z,981.32
2022-10-21T12:49:56.000Z,981.26
2022-10-21T12:54:50.000Z,981.34
2022-10-21T12:59:44.000Z,981.58
2022-10-21T13:04:38.000Z,981.43
2022-10-21T13:09:32.000Z,981.45
2022-10-21T13:14:26.000Z,981.42
2022-10-21T13:19:20.000Z,981.32
2022-10-21T13:24:14.000Z,981.30
2022-10-21T13:29:09.000Z,981.30
2022-10-21T13:34:04.000Z,981.35
2022-10-21T13:38:58.000Z,981.37
2022-10-21T13:43:52.000Z,981.27
2022-10-21T13:48:47.000Z,981.34
2022-10-21T14:03:26.000Z,981.41
2022-10-21T14:17:59.000Z,981.17
2022-10-21T14:22:55.000Z,981.10
2022-10-21T14:27:50.000Z,981.21
2022-10-21T14:32:45.000Z,981.16
2022-10-21T14:37:39.000Z,981.26
2022-10-21T14:42:33.000Z,981.22
2022-10-21T14:47:28.000Z,981.10
2022-10-21T15:02:02.000Z,981.29
2022-10-21T15:06:57.000Z,981.22
2022-10-21T15:11:51.000Z,981.15
2022-10-21T15:16:46.000Z,981.08
2022-10-21T15:31:23.000Z,981.02
2022-10-21T15:46:00.000Z,981.15
2022-10-21T16:00:39.000Z,981.07
2022-10-21T16:15:19.000Z,981.07
2022-10-21T16:29:53.000Z,981.28
2022-10-21T16:44:24.000Z,981.36
2022-10-21T16:59:02.000Z,981.40
2022-10-21T17:13:41.000Z,981.70
2022-10-21T17:28:09.000Z,981.75
2022-10-21T17:42:47.000Z,981.80
2022-10-21T18:12:04.000Z,982.00
2022-10-21T18:26:43.000Z,981.97
2022-10-21T18:41:22.000Z,981.86
2022-10-21T18:56:01.000Z,981.69
2022-10-21T19:10:41.000Z,981.87
2022-10-21T19:25:20.000Z,981.88
2022-10-21T19:39:55.000Z,982.08
2022-10-21T19:54:33.000Z,982.31
2022-10-21T20:09:11.000Z,982.16
2022-10-21T20:23:47.000Z,982.18
2022-10-21T20:38:27.000Z,982.21
2022-10-21T20:53:05.000Z,982.30
2022-10-21T21:07:43.000Z,982.78
2022-10-21T21:22:20.000Z,982.56
2022-10-21T21:36:58.000Z,982.23
2022-10-21T21:51:37.000Z,982.24
2022-10-21T22:06:18.000Z,982.16
2022-10-21T22:20:56.000Z,982.07
2022-10-21T22:35:35.000Z,982.42
2022-10-21T22:50:15.000Z,982.28
2022-10-21T23:04:55.000Z,982.21
2022-10-21T23:19:34.000Z,982.09
2022-10-21T23:34:12.000Z,982.44
2022-10-21T23:48:51.000Z,982.66
